Time;durP1;ratioP1;P1;durP2;ratioP2;P2;SDS_P1;SDS_P2;PMS_P1;PMS_P2;Temp;Humidity;BMP_temperature;BMP_pressure;BME280_temperature;BME280_humidity;BME280_pressure;Samples;Min_cycle;Max_cycle;Signal;HPM_P1;HPM_P2
2024/02/27 00:00:26;;;;;;;17.40;8.15;;;;;;;;;;10416542;28;20475;-62
2024/02/27 00:05:25;;;;;;;13.15;8.18;;;;;;;;;;10417667;28;20071;-63
2024/02/27 00:10:24;;;;;;;12.43;7.15;;;;;;;;;;10410493;28;20566;-62
2024/02/27 00:15:22;;;;;;;16.10;8.85;;;;;;;;;;10411621;28;20073;-62
2024/02/27 00:20:22;;;;;;;15.77;8.77;;;;;;;;;;10412461;28;20508;-62
2024/02/27 00:25:20;;;;;;;15.23;8.45;;;;;;;;;;10420623;27;20509;-62
2024/02/27 00:30:20;;;;;;;25.02;9.80;;;;;;;;;;10422744;27;20081;-62
2024/02/27 00:35:18;;;;;;;16.23;8.57;;;;;;;;;;10420446;27;20567;-61
2024/02/27 00:40:18;;;;;;;15.45;8.77;;;;;;;;;;10421580;27;20074;-61
2024/02/27 00:45:16;;;;;;;16.25;9.27;;;;;;;;;;10419073;27;20614;-62
2024/02/27 00:50:15;;;;;;;18.63;8.23;;;;;;;;;;10421489;27;20082;-61
2024/02/27 00:55:13;;;;;;;15.82;9.77;;;;;;;;;;10422664;27;20094;-61
2024/02/27 01:00:14;;;;;;;13.10;8.45;;;;;;;;;;10415349;27;20070;-62
2024/02/27 01:05:13;;;;;;;17.35;9.85;;;;;;;;;;10410483;27;20501;-62
2024/02/27 01:10:11;;;;;;;12.00;9.40;;;;;;;;;;10420659;27;20736;-60
2024/02/27 01:15:10;;;;;;;17.92;11.25;;;;;;;;;;10419361;27;20074;-61
2024/02/27 01:20:10;;;;;;;14.95;8.65;;;;;;;;;;10420630;27;20519;-62
2024/02/27 01:25:12;;;;;;;9.70;7.93;;;;;;;;;;10419289;27;20062;-63
2024/02/27 01:30:11;;;;;;;10.73;7.72;;;;;;;;;;10413759;27;20067;-62
2024/02/27 01:35:10;;;;;;;16.27;8.73;;;;;;;;;;10414711;27;20554;-63
2024/02/27 01:40:10;;;;;;;14.88;8.70;;;;;;;;;;10421673;27;20066;-63
2024/02/27 01:45:11;;;;;;;11.82;8.10;;;;;;;;;;10420959;27;20059;-63
2024/02/27 01:50:12;;;;;;;15.85;8.00;;;;;;;;;;10419722;27;20067;-63
2024/02/27 01:55:11;;;;;;;12.98;7.88;;;;;;;;;;10421290;27;20071;-63
2024/02/27 02:00:10;;;;;;;15.30;8.25;;;;;;;;;;10418873;27;20059;-63
2024/02/27 02:05:12;;;;;;;13.98;8.30;;;;;;;;;;10419175;27;20074;-63
2024/02/27 02:10:11;;;;;;;15.77;8.73;;;;;;;;;;10415366;27;20073;-62
2024/02/27 02:15:10;;;;;;;13.40;8.85;;;;;;;;;;10415802;27;20532;-63
2024/02/27 02:20:09;;;;;;;15.15;9.23;;;;;;;;;;10418659;27;20090;-63
2024/02/27 02:25:11;;;;;;;13.10;7.93;;;;;;;;;;10415991;27;20083;-63
2024/02/27 02:30:11;;;;;;;15.13;8.32;;;;;;;;;;10416559;27;20086;-62
2024/02/27 02:35:09;;;;;;;13.10;7.88;;;;;;;;;;10416203;27;20079;-63
2024/02/27 02:40:10;;;;;;;15.15;7.40;;;;;;;;;;10414729;27;20082;-63
2024/02/27 02:45:08;;;;;;;12.70;7.55;;;;;;;;;;10417906;27;20078;-62
2024/02/27 02:50:07;;;;;;;14.18;7.85;;;;;;;;;;10414971;27;20078;-62
2024/02/27 02:55:06;;;;;;;17.58;8.93;;;;;;;;;;10416810;27;20085;-62
2024/02/27 03:00:07;;;;;;;12.27;7.65;;;;;;;;;;10416458;27;20090;-62
2024/02/27 03:05:06;;;;;;;11.40;7.53;;;;;;;;;;10416394;27;20090;-62
2024/02/27 03:10:05;;;;;;;12.45;6.93;;;;;;;;;;10402151;27;20079;-62
2024/02/27 03:15:04;;;;;;;16.17;7.55;;;;;;;;;;10410946;27;20082;-62
2024/02/27 03:20:05;;;;;;;15.70;8.23;;;;;;;;;;10407294;27;20083;-61
2024/02/27 03:25:05;;;;;;;15.77;8.88;;;;;;;;;;10414609;27;20513;-62
2024/02/27 03:30:04;;;;;;;15.73;7.65;;;;;;;;;;10416810;27;20074;-63
2024/02/27 03:35:04;;;;;;;13.57;8.05;;;;;;;;;;10411655;27;20082;-62
2024/02/27 03:40:03;;;;;;;19.52;8.98;;;;;;;;;;10417344;27;20149;-62
2024/02/27 03:45:01;;;;;;;16.90;8.00;;;;;;;;;;10414458;27;20082;-62
2024/02/27 03:49:59;;;;;;;12.23;7.35;;;;;;;;;;10392172;28;20075;-61
2024/02/27 03:54:59;;;;;;;14.93;8.13;;;;;;;;;;10415849;28;20499;-62
2024/02/27 03:59:57;;;;;;;14.48;7.25;;;;;;;;;;10421019;27;20481;-63
2024/02/27 04:04:56;;;;;;;12.80;8.45;;;;;;;;;;10420787;27;20090;-63
2024/02/27 04:09:54;;;;;;;17.23;8.57;;;;;;;;;;10424461;27;20067;-63
2024/02/27 04:14:56;;;;;;;18.95;8.23;;;;;;;;;;10418952;27;20083;-63
2024/02/27 04:19:57;;;;;;;18.17;8.25;;;;;;;;;;10421725;27;20086;-61
2024/02/27 04:24:55;;;;;;;23.35;8.30;;;;;;;;;;10420136;27;20550;-62
2024/02/27 04:29:54;;;;;;;17.35;8.27;;;;;;;;;;10420921;27;20066;-62
2024/02/27 04:34:54;;;;;;;11.30;7.40;;;;;;;;;;10421983;27;20453;-62
2024/02/27 04:39:52;;;;;;;15.73;7.55;;;;;;;;;;10400375;27;20079;-62
2024/02/27 04:44:50;;;;;;;22.92;8.63;;;;;;;;;;10421659;27;20070;-62
2024/02/27 04:49:48;;;;;;;12.93;7.18;;;;;;;;;;10425384;27;20544;-62
2024/02/27 04:54:48;;;;;;;13.73;6.93;;;;;;;;;;10418985;27;20691;-62
2024/02/27 04:59:47;;;;;;;15.80;7.95;;;;;;;;;;10423262;27;20070;-62
2024/02/27 05:04:45;;;;;;;14.35;7.90;;;;;;;;;;10421162;27;20472;-62
2024/02/27 05:09:45;;;;;;;17.88;9.85;;;;;;;;;;10421737;27;20082;-62
2024/02/27 05:14:46;;;;;;;15.70;7.57;;;;;;;;;;10422449;27;20082;-63
2024/02/27 05:19:44;;;;;;;14.93;7.47;;;;;;;;;;10418338;27;20089;-63
2024/02/27 05:24:42;;;;;;;15.48;7.38;;;;;;;;;;10418718;27;20064;-63
2024/02/27 05:29:41;;;;;;;17.67;8.50;;;;;;;;;;10421013;27;20101;-63
2024/02/27 05:34:40;;;;;;;14.23;7.45;;;;;;;;;;10420143;27;20079;-63
2024/02/27 05:39:39;;;;;;;22.73;12.68;;;;;;;;;;10416875;27;20082;-63
2024/02/27 05:44:37;;;;;;;21.40;7.75;;;;;;;;;;10413469;27;20586;-61
2024/02/27 05:49:35;;;;;;;15.00;8.52;;;;;;;;;;10421136;27;20079;-62
2024/02/27 05:54:35;;;;;;;13.35;8.30;;;;;;;;;;10413393;27;20078;-62
2024/02/27 05:59:34;;;;;;;14.98;8.00;;;;;;;;;;10418960;27;20109;-63
2024/02/27 06:04:33;;;;;;;16.10;9.23;;;;;;;;;;10409267;27;20074;-62
2024/02/27 06:09:32;;;;;;;16.40;7.63;;;;;;;;;;10414738;27;20067;-62
2024/02/27 06:14:31;;;;;;;11.05;7.68;;;;;;;;;;10427389;27;20065;-62
2024/02/27 06:19:30;;;;;;;16.85;8.82;;;;;;;;;;10421625;27;20528;-62
2024/02/27 06:24:29;;;;;;;15.68;8.88;;;;;;;;;;10417365;27;20089;-62
2024/02/27 06:29:27;;;;;;;14.45;8.00;;;;;;;;;;10419867;27;20070;-62
2024/02/27 06:34:27;;;;;;;16.40;9.20;;;;;;;;;;10419703;27;20081;-62
2024/02/27 06:39:25;;;;;;;18.33;8.57;;;;;;;;;;10418573;27;20060;-62
2024/02/27 06:44:25;;;;;;;16.10;7.97;;;;;;;;;;10421664;27;20071;-63
2024/02/27 06:49:23;;;;;;;20.05;11.02;;;;;;;;;;10418581;27;20477;-63
2024/02/27 06:54:23;;;;;;;22.40;9.00;;;;;;;;;;10423456;27;20067;-62
2024/02/27 06:59:21;;;;;;;19.33;8.00;;;;;;;;;;10418472;27;20534;-62
2024/02/27 07:04:21;;;;;;;13.55;8.25;;;;;;;;;;10416896;27;20082;-62
2024/02/27 07:09:20;;;;;;;18.02;8.95;;;;;;;;;;10421261;27;20063;-63
2024/02/27 07:14:20;;;;;;;17.27;8.65;;;;;;;;;;10417796;27;20078;-62
2024/02/27 07:19:19;;;;;;;21.63;8.98;;;;;;;;;;10414379;27;20079;-63
2024/02/27 07:24:19;;;;;;;16.80;9.02;;;;;;;;;;10414296;27;20067;-63
2024/02/27 07:29:17;;;;;;;16.85;9.82;;;;;;;;;;10406285;27;20075;-64
2024/02/27 07:34:17;;;;;;;16.55;8.45;;;;;;;;;;10409350;27;20058;-62
2024/02/27 07:39:16;;;;;;;13.63;9.05;;;;;;;;;;10410513;27;20059;-63
2024/02/27 07:44:15;;;;;;;15.82;8.05;;;;;;;;;;10411009;27;20093;-64
2024/02/27 07:49:13;;;;;;;17.95;9.55;;;;;;;;;;10414676;27;20062;-63
2024/02/27 07:54:15;;;;;;;14.85;9.40;;;;;;;;;;10411724;28;20067;-64
2024/02/27 07:59:14;;;;;;;14.40;8.40;;;;;;;;;;10415828;28;20071;-62
2024/02/27 08:04:12;;;;;;;15.38;7.82;;;;;;;;;;10416628;28;20066;-63
2024/02/27 08:09:12;;;;;;;18.15;7.90;;;;;;;;;;10416403;28;20689;-64
2024/02/27 08:14:11;;;;;;;19.55;7.88;;;;;;;;;;10411733;28;20067;-64
2024/02/27 08:19:09;;;;;;;21.23;8.45;;;;;;;;;;10412245;28;20079;-63
2024/02/27 08:24:11;;;;;;;17.75;8.50;;;;;;;;;;10415060;28;20514;-63
2024/02/27 08:29:11;;;;;;;16.58;8.27;;;;;;;;;;10412401;28;20090;-63
2024/02/27 08:34:10;;;;;;;12.30;7.10;;;;;;;;;;10415059;28;20556;-63
2024/02/27 08:39:09;;;;;;;15.82;7.40;;;;;;;;;;10412212;28;20093;-63
2024/02/27 08:44:07;;;;;;;21.08;8.02;;;;;;;;;;10416274;27;20083;-64
2024/02/27 08:49:07;;;;;;;15.45;7.43;;;;;;;;;;10421788;27;20074;-62
2024/02/27 08:54:05;;;;;;;9.77;6.15;;;;;;;;;;10415937;27;20079;-63
2024/02/27 08:59:04;;;;;;;14.40;7.90;;;;;;;;;;10420033;27;20082;-62
2024/02/27 09:04:02;;;;;;;15.20;6.68;;;;;;;;;;10422563;27;20105;-63
2024/02/27 09:09:04;;;;;;;11.10;6.75;;;;;;;;;;10421541;27;20066;-63
2024/02/27 09:14:06;;;;;;;12.80;6.95;;;;;;;;;;10418234;27;20063;-63
2024/02/27 09:19:04;;;;;;;13.80;7.05;;;;;;;;;;10423213;27;20458;-63
2024/02/27 09:24:04;;;;;;;13.02;6.97;;;;;;;;;;10399314;27;20082;-63
2024/02/27 09:29:03;;;;;;;10.40;6.50;;;;;;;;;;10419040;27;20097;-63
2024/02/27 09:34:01;;;;;;;12.68;7.03;;;;;;;;;;10402832;27;20079;-63
2024/02/27 09:39:00;;;;;;;15.98;6.70;;;;;;;;;;10417732;27;20070;-63
2024/02/27 09:44:02;;;;;;;16.95;7.30;;;;;;;;;;10418499;27;20075;-63
2024/02/27 09:49:00;;;;;;;13.35;6.18;;;;;;;;;;10401138;27;20067;-63
2024/02/27 09:54:00;;;;;;;17.35;6.80;;;;;;;;;;10416670;27;20081;-63
2024/02/27 09:59:02;;;;;;;18.73;7.57;;;;;;;;;;10418560;27;20067;-64
2024/02/27 10:04:01;;;;;;;28.48;7.32;;;;;;;;;;10420761;27;20509;-63
2024/02/27 10:09:00;;;;;;;20.05;7.43;;;;;;;;;;10416755;27;20086;-63
2024/02/27 10:14:00;;;;;;;16.73;7.55;;;;;;;;;;10417858;27;20070;-63
2024/02/27 10:18:59;;;;;;;15.70;6.78;;;;;;;;;;10415395;27;20078;-62
2024/02/27 10:23:58;;;;;;;12.70;6.30;;;;;;;;;;10420088;27;20497;-62
2024/02/27 10:28:56;;;;;;;15.35;7.35;;;;;;;;;;10419955;27;20063;-64
2024/02/27 10:33:56;;;;;;;16.80;7.07;;;;;;;;;;10412348;27;20071;-63
2024/02/27 10:39:07;;;;;;;12.50;6.00;;;;;;;;;;10414913;27;20101;-63
2024/02/27 10:44:07;;;;;;;14.20;7.13;;;;;;;;;;10413350;27;20074;-62
2024/02/27 10:49:13;;;;;;;16.83;7.25;;;;;;;;;;10415546;27;20575;-63
2024/02/27 10:54:14;;;;;;;20.70;7.63;;;;;;;;;;10415614;27;20078;-64
2024/02/27 10:59:12;;;;;;;15.50;7.03;;;;;;;;;;10411424;27;20090;-63
2024/02/27 11:04:19;;;;;;;13.65;6.15;;;;;;;;;;10410197;27;20500;-63
2024/02/27 11:09:21;;;;;;;16.55;6.75;;;;;;;;;;10410849;27;20059;-64
2024/02/27 11:14:23;;;;;;;12.52;6.28;;;;;;;;;;10412362;27;20067;-61
2024/02/27 11:19:22;;;;;;;11.50;6.50;;;;;;;;;;10418542;27;20083;-64
2024/02/27 11:24:22;;;;;;;16.02;5.75;;;;;;;;;;10413417;27;20062;-63
2024/02/27 11:29:21;;;;;;;21.75;6.03;;;;;;;;;;10412681;27;20071;-63
2024/02/27 11:34:23;;;;;;;14.50;6.28;;;;;;;;;;10412046;27;20079;-64
2024/02/27 11:39:32;;;;;;;10.27;5.53;;;;;;;;;;10414651;27;20078;-64
2024/02/27 11:44:30;;;;;;;11.00;5.35;;;;;;;;;;10408594;27;20082;-63
2024/02/27 11:49:40;;;;;;;13.38;5.07;;;;;;;;;;10408896;27;20071;-63
2024/02/27 11:54:40;;;;;;;19.83;6.13;;;;;;;;;;10416745;28;20070;-62
2024/02/27 11:59:38;;;;;;;14.73;6.28;;;;;;;;;;10416138;28;20539;-63
2024/02/27 12:04:37;;;;;;;13.75;5.32;;;;;;;;;;10412197;28;20067;-63
2024/02/27 12:09:35;;;;;;;15.43;5.47;;;;;;;;;;10412227;28;20063;-64
2024/02/27 12:14:35;;;;;;;11.60;5.60;;;;;;;;;;10414625;28;20071;-63
2024/02/27 12:19:33;;;;;;;14.07;5.35;;;;;;;;;;10420014;27;20086;-62
2024/02/27 12:24:31;;;;;;;11.07;6.15;;;;;;;;;;10421936;27;20071;-63
2024/02/27 12:29:30;;;;;;;17.58;7.60;;;;;;;;;;10422499;27;20152;-64
2024/02/27 12:34:32;;;;;;;12.80;6.03;;;;;;;;;;10421926;27;20068;-62
2024/02/27 12:39:31;;;;;;;13.85;6.97;;;;;;;;;;10424475;27;20079;-64
2024/02/27 12:44:29;;;;;;;12.63;5.63;;;;;;;;;;10421884;27;20083;-63
2024/02/27 12:49:28;;;;;;;13.13;5.65;;;;;;;;;;10421154;27;20093;-63
2024/02/27 12:54:27;;;;;;;14.63;6.60;;;;;;;;;;10425191;27;20062;-64
2024/02/27 12:59:26;;;;;;;13.55;7.07;;;;;;;;;;10404087;27;20499;-63
2024/02/27 13:04:24;;;;;;;13.10;6.43;;;;;;;;;;10419834;27;20070;-63
2024/02/27 13:09:22;;;;;;;20.48;7.38;;;;;;;;;;10422421;27;20071;-63
2024/02/27 13:14:22;;;;;;;14.38;6.35;;;;;;;;;;10423991;27;20074;-63
2024/02/27 13:19:22;;;;;;;14.13;7.05;;;;;;;;;;10415223;27;20117;-62
2024/02/27 13:24:21;;;;;;;11.63;5.35;;;;;;;;;;10419114;27;20086;-63
2024/02/27 13:29:19;;;;;;;12.18;6.18;;;;;;;;;;10418800;27;20066;-63
2024/02/27 13:34:21;;;;;;;18.23;7.38;;;;;;;;;;10423024;27;20075;-62
2024/02/27 13:39:20;;;;;;;18.52;7.78;;;;;;;;;;10422348;27;20105;-64
2024/02/27 13:44:19;;;;;;;14.60;5.95;;;;;;;;;;10421376;27;20075;-60
2024/02/27 13:49:21;;;;;;;13.30;5.93;;;;;;;;;;10411602;27;20067;-62
2024/02/27 13:54:20;;;;;;;13.70;6.22;;;;;;;;;;10413222;27;20097;-62
2024/02/27 13:59:18;;;;;;;14.23;5.72;;;;;;;;;;10417529;27;20464;-64
2024/02/27 14:04:17;;;;;;;16.05;7.60;;;;;;;;;;10419331;27;20097;-63
2024/02/27 14:09:16;;;;;;;14.32;6.18;;;;;;;;;;10418189;27;20527;-64
2024/02/27 14:14:16;;;;;;;14.93;6.97;;;;;;;;;;10421040;27;20059;-64
2024/02/27 14:19:19;;;;;;;12.38;6.28;;;;;;;;;;10413255;27;20087;-63
2024/02/27 14:24:18;;;;;;;13.15;6.30;;;;;;;;;;10416088;27;20471;-63
2024/02/27 14:29:17;;;;;;;12.65;7.10;;;;;;;;;;10416656;27;20492;-63
2024/02/27 14:34:15;;;;;;;15.13;7.22;;;;;;;;;;10419024;27;20559;-62
2024/02/27 14:39:13;;;;;;;11.73;6.70;;;;;;;;;;10415640;27;20090;-65
2024/02/27 14:44:16;;;;;;;15.80;6.07;;;;;;;;;;10419170;27;20090;-64
2024/02/27 14:49:14;;;;;;;13.63;5.88;;;;;;;;;;10416428;27;20066;-63
2024/02/27 14:54:12;;;;;;;15.18;5.88;;;;;;;;;;10415288;27;20075;-63
2024/02/27 14:59:11;;;;;;;11.02;5.95;;;;;;;;;;10412304;27;20519;-63
2024/02/27 15:04:13;;;;;;;9.63;5.20;;;;;;;;;;10415666;27;20083;-62
2024/02/27 15:09:11;;;;;;;11.40;7.38;;;;;;;;;;10418909;27;20066;-63
2024/02/27 15:14:10;;;;;;;16.58;7.03;;;;;;;;;;10413677;27;20063;-62
2024/02/27 15:19:09;;;;;;;18.63;11.77;;;;;;;;;;10413622;27;20915;-65
2024/02/27 15:24:08;;;;;;;18.33;10.65;;;;;;;;;;10418566;27;20082;-63
2024/02/27 15:29:06;;;;;;;26.73;15.15;;;;;;;;;;10417234;27;20436;-63
2024/02/27 15:34:04;;;;;;;33.63;17.65;;;;;;;;;;10415750;27;20546;-63
2024/02/27 15:39:04;;;;;;;25.70;12.88;;;;;;;;;;10417567;27;20085;-63
2024/02/27 15:44:03;;;;;;;20.05;13.18;;;;;;;;;;10423086;27;20075;-62
2024/02/27 15:49:12;;;;;;;15.02;8.88;;;;;;;;;;10416859;27;20066;-65
2024/02/27 15:54:15;;;;;;;23.23;16.73;;;;;;;;;;10415797;27;20089;-63
2024/02/27 16:04:52;;;;;;;19.45;11.88;;;;;;;;;;10369925;28;20090;-65
2024/02/27 16:10:02;;;;;;;21.90;12.15;;;;;;;;;;10365129;28;20068;-65
2024/02/27 16:15:04;;;;;;;19.00;11.57;;;;;;;;;;10362773;28;20067;-62
2024/02/27 16:20:13;;;;;;;15.88;9.60;;;;;;;;;;10357899;28;20086;-62
2024/02/27 16:25:15;;;;;;;19.33;10.93;;;;;;;;;;10373395;28;20086;-62
2024/02/27 16:30:16;;;;;;;40.45;25.40;;;;;;;;;;10367457;28;20067;-62
2024/02/27 16:35:16;;;;;;;16.05;9.98;;;;;;;;;;10367574;28;20159;-62
2024/02/27 16:40:16;;;;;;;12.00;8.55;;;;;;;;;;10366042;28;20098;-62
2024/02/27 16:45:14;;;;;;;15.18;8.90;;;;;;;;;;10367533;28;20535;-62
2024/02/27 16:50:13;;;;;;;17.85;10.18;;;;;;;;;;10371604;28;20067;-63
2024/02/27 16:55:11;;;;;;;15.05;9.77;;;;;;;;;;10352678;28;20513;-63
2024/02/27 17:00:11;;;;;;;14.10;8.15;;;;;;;;;;10367805;28;20102;-61
2024/02/27 17:05:10;;;;;;;12.48;8.93;;;;;;;;;;10374146;28;20075;-62
2024/02/27 17:10:08;;;;;;;17.90;8.45;;;;;;;;;;10377884;28;20079;-63
2024/02/27 17:15:07;;;;;;;13.77;9.77;;;;;;;;;;10378043;28;20075;-62
2024/02/27 17:20:08;;;;;;;13.82;7.95;;;;;;;;;;10379514;28;20486;-62
2024/02/27 17:25:06;;;;;;;15.35;8.10;;;;;;;;;;10378834;28;20078;-63
2024/02/27 17:30:05;;;;;;;21.20;8.95;;;;;;;;;;10371152;28;20075;-63
2024/02/27 17:35:04;;;;;;;17.23;10.55;;;;;;;;;;10379388;28;20070;-62
2024/02/27 17:40:05;;;;;;;28.42;13.73;;;;;;;;;;10381792;28;20604;-62
2024/02/27 17:45:03;;;;;;;20.80;11.57;;;;;;;;;;10378373;28;20079;-62
2024/02/27 17:50:02;;;;;;;15.07;9.02;;;;;;;;;;10387568;28;20074;-62
2024/02/27 17:55:01;;;;;;;14.90;8.93;;;;;;;;;;10376175;28;20063;-63
2024/02/27 18:00:01;;;;;;;14.55;9.88;;;;;;;;;;10375105;28;20075;-63
2024/02/27 18:05:01;;;;;;;19.50;9.27;;;;;;;;;;10374323;28;20076;-63
2024/02/27 18:09:59;;;;;;;17.38;10.07;;;;;;;;;;10375914;28;20058;-62
2024/02/27 18:14:59;;;;;;;26.33;13.05;;;;;;;;;;10373666;28;20142;-62
2024/02/27 18:19:58;;;;;;;17.85;10.95;;;;;;;;;;10376523;28;20556;-63
2024/02/27 18:24:57;;;;;;;26.08;14.88;;;;;;;;;;10373462;28;20070;-63
2024/02/27 18:29:55;;;;;;;18.13;12.25;;;;;;;;;;10377173;28;20070;-62
2024/02/27 18:34:53;;;;;;;32.72;19.52;;;;;;;;;;10372696;28;20122;-62
2024/02/27 18:39:53;;;;;;;31.13;20.00;;;;;;;;;;10372263;28;20078;-61
2024/02/27 18:44:53;;;;;;;31.88;18.70;;;;;;;;;;10373962;28;20488;-62
2024/02/27 18:49:52;;;;;;;19.90;14.68;;;;;;;;;;10372886;28;20082;-63
2024/02/27 18:54:50;;;;;;;15.70;10.30;;;;;;;;;;10377340;28;20070;-61
2024/02/27 18:59:51;;;;;;;20.88;9.60;;;;;;;;;;10375482;28;20080;-63
2024/02/27 19:04:49;;;;;;;17.38;11.60;;;;;;;;;;10374847;28;20075;-62
2024/02/27 19:09:47;;;;;;;19.45;10.80;;;;;;;;;;10379420;28;20068;-62
2024/02/27 19:14:45;;;;;;;16.80;12.75;;;;;;;;;;10375125;28;20060;-64
2024/02/27 19:19:45;;;;;;;15.45;11.02;;;;;;;;;;10374946;28;20461;-63
2024/02/27 19:24:44;;;;;;;15.68;11.30;;;;;;;;;;10375140;28;20513;-63
2024/02/27 19:29:42;;;;;;;14.80;10.35;;;;;;;;;;10370507;28;20146;-63
2024/02/27 19:34:40;;;;;;;13.90;9.45;;;;;;;;;;10372309;28;20074;-63
2024/02/27 19:39:40;;;;;;;18.42;10.35;;;;;;;;;;10374194;28;20081;-63
2024/02/27 19:44:38;;;;;;;14.63;9.18;;;;;;;;;;10375012;28;20509;-63
2024/02/27 19:49:36;;;;;;;22.45;9.27;;;;;;;;;;10370642;28;20068;-63
2024/02/27 19:54:35;;;;;;;18.65;9.20;;;;;;;;;;10356318;28;20047;-62
2024/02/27 19:59:36;;;;;;;20.90;8.48;;;;;;;;;;10381707;28;20543;-63
2024/02/27 20:04:34;;;;;;;14.43;8.68;;;;;;;;;;10378789;28;20079;-64
2024/02/27 20:09:32;;;;;;;19.10;9.38;;;;;;;;;;10371375;28;20118;-63
2024/02/27 20:14:30;;;;;;;21.60;9.60;;;;;;;;;;10369535;28;20074;-63
2024/02/27 20:19:30;;;;;;;21.42;10.27;;;;;;;;;;10373779;28;20082;-65
2024/02/27 20:24:28;;;;;;;18.50;8.93;;;;;;;;;;10377369;28;20075;-63
2024/02/27 20:29:26;;;;;;;15.32;8.85;;;;;;;;;;10369467;28;20071;-63
2024/02/27 20:34:41;;;;;;;19.65;10.52;;;;;;;;;;10375891;28;20071;-63
2024/02/27 20:39:39;;;;;;;28.38;15.13;;;;;;;;;;10375393;28;20267;-64
2024/02/27 20:44:37;;;;;;;20.25;10.18;;;;;;;;;;10381913;28;20075;-64
2024/02/27 20:49:36;;;;;;;23.58;11.18;;;;;;;;;;10379088;28;20071;-64
2024/02/27 20:54:36;;;;;;;20.17;11.85;;;;;;;;;;10379959;28;20059;-64
2024/02/27 20:59:34;;;;;;;16.42;10.27;;;;;;;;;;10377492;28;20143;-63
2024/02/27 21:04:32;;;;;;;18.85;9.77;;;;;;;;;;10359789;28;20086;-63
2024/02/27 21:09:30;;;;;;;15.90;9.52;;;;;;;;;;10383946;28;20473;-63
2024/02/27 21:14:31;;;;;;;16.05;9.10;;;;;;;;;;10382386;28;20063;-64
2024/02/27 21:19:29;;;;;;;14.52;8.75;;;;;;;;;;10380270;28;20081;-63
2024/02/27 21:24:28;;;;;;;18.70;9.20;;;;;;;;;;10376114;28;20091;-63
2024/02/27 21:29:26;;;;;;;14.52;8.90;;;;;;;;;;10376526;28;20055;-62
2024/02/27 21:34:26;;;;;;;14.73;8.27;;;;;;;;;;10375299;28;20485;-63
2024/02/27 21:39:24;;;;;;;15.00;8.02;;;;;;;;;;10372408;28;20067;-63
2024/02/27 21:44:23;;;;;;;17.85;9.48;;;;;;;;;;10371793;28;20064;-64
2024/02/27 21:49:21;;;;;;;17.52;8.40;;;;;;;;;;10371529;28;20691;-63
2024/02/27 21:54:20;;;;;;;14.57;8.35;;;;;;;;;;10371031;28;20129;-63
2024/02/27 21:59:19;;;;;;;17.40;9.75;;;;;;;;;;10368792;28;20102;-64
2024/02/27 22:04:17;;;;;;;16.90;9.20;;;;;;;;;;10370894;28;20071;-63
2024/02/27 22:09:15;;;;;;;14.85;10.45;;;;;;;;;;10374899;28;20074;-63
2024/02/27 22:14:15;;;;;;;17.88;7.95;;;;;;;;;;10375645;28;20067;-64
2024/02/27 22:19:13;;;;;;;15.10;8.35;;;;;;;;;;10374168;28;20075;-64
2024/02/27 22:24:12;;;;;;;15.07;8.55;;;;;;;;;;10373750;28;20086;-64
2024/02/27 22:29:10;;;;;;;15.57;9.07;;;;;;;;;;10374433;28;20059;-65
2024/02/27 22:34:10;;;;;;;12.52;7.50;;;;;;;;;;10376003;28;20070;-65
2024/02/27 22:39:08;;;;;;;18.42;12.23;;;;;;;;;;10371570;28;20469;-64
2024/02/27 22:44:06;;;;;;;35.30;22.25;;;;;;;;;;10372131;28;20086;-63
2024/02/27 22:49:04;;;;;;;12.75;9.43;;;;;;;;;;10375929;28;20082;-63
2024/02/27 22:54:04;;;;;;;22.65;9.85;;;;;;;;;;10371946;28;20542;-64
2024/02/27 22:59:02;;;;;;;16.58;8.80;;;;;;;;;;10375213;28;20079;-64
2024/02/27 23:04:01;;;;;;;23.58;10.07;;;;;;;;;;10372946;28;20091;-64
2024/02/27 23:08:59;;;;;;;18.83;9.05;;;;;;;;;;10376091;28;20071;-63
2024/02/27 23:14:04;;;;;;;22.15;8.95;;;;;;;;;;10372917;28;20072;-64
2024/02/27 23:19:03;;;;;;;17.45;10.35;;;;;;;;;;10372208;28;20078;-64
2024/02/27 23:24:01;;;;;;;22.45;10.45;;;;;;;;;;10373450;28;20094;-64
2024/02/27 23:29:01;;;;;;;14.45;9.65;;;;;;;;;;10353445;28;20516;-64
2024/02/27 23:33:59;;;;;;;18.45;9.35;;;;;;;;;;10370776;28;20063;-64
2024/02/27 23:38:58;;;;;;;16.25;10.10;;;;;;;;;;10373276;28;20071;-64
2024/02/27 23:43:56;;;;;;;16.67;9.35;;;;;;;;;;10369073;28;20074;-64
2024/02/27 23:48:56;;;;;;;13.13;8.55;;;;;;;;;;10370242;28;20453;-65
2024/02/27 23:53:56;;;;;;;14.02;8.65;;;;;;;;;;10369130;28;20091;-64
2024/02/27 23:58:54;;;;;;;14.27;9.18;;;;;;;;;;10370842;28;20075;-64
